Time;durP1;ratioP1;P1;durP2;ratioP2;P2;SDS_P1;SDS_P2;PMS_P1;PMS_P2;Temp;Humidity;BMP_temperature;BMP_pressure;BME280_temperature;BME280_humidity;BME280_pressure;Samples;Min_cycle;Max_cycle;Signal;HPM_P1;HPM_P2
2022/07/26 00:02:12;;;;;;;;;;;27.90;50.40;;;;;;5048990;28;19913;-64
2022/07/26 00:04:37;;;;;;;;;;;27.90;50.50;;;;;;5050054;28;20003;-64
2022/07/26 00:07:03;;;;;;;;;;;27.90;50.50;;;;;;5045261;28;20254;-64
2022/07/26 00:09:28;;;;;;;;;;;27.80;50.40;;;;;;5047953;28;19967;-64
2022/07/26 00:11:54;;;;;;;;;;;27.90;50.40;;;;;;5046505;28;20035;-64
2022/07/26 00:14:19;;;;;;;;;;;27.90;50.40;;;;;;5049628;28;19925;-64
2022/07/26 00:16:45;;;;;;;;;;;28.00;50.50;;;;;;5047480;28;19924;-64
2022/07/26 00:19:10;;;;;;;;;;;27.90;50.40;;;;;;5045275;28;20522;-64
2022/07/26 00:21:36;;;;;;;;;;;27.90;50.40;;;;;;5048396;28;19959;-64
2022/07/26 00:24:02;;;;;;;;;;;27.70;50.70;;;;;;5048379;28;19920;-64
2022/07/26 00:26:27;;;;;;;;;;;27.70;51.00;;;;;;5051759;28;20319;-64
2022/07/26 00:28:53;;;;;;;;;;;27.50;51.20;;;;;;5053454;28;19919;-64
2022/07/26 00:31:18;;;;;;;;;;;27.40;51.20;;;;;;5049007;28;19920;-64
2022/07/26 00:33:44;;;;;;;;;;;27.30;51.20;;;;;;5047457;28;20364;-64
2022/07/26 00:36:09;;;;;;;;;;;27.40;51.20;;;;;;5042210;28;20632;-64
2022/07/26 00:38:34;;;;;;;;;;;27.40;51.20;;;;;;5046814;28;20292;-64
2022/07/26 00:41:00;;;;;;;;;;;27.30;51.20;;;;;;5048922;28;19913;-64
2022/07/26 00:43:25;;;;;;;;;;;27.30;51.20;;;;;;5051047;28;20325;-64
2022/07/26 00:45:51;;;;;;;;;;;27.30;51.20;;;;;;5051449;28;19920;-64
2022/07/26 00:48:16;;;;;;;;;;;27.30;51.20;;;;;;5050555;28;19913;-64
2022/07/26 00:50:42;;;;;;;;;;;27.30;51.10;;;;;;5050167;28;20322;-64
2022/07/26 00:53:07;;;;;;;;;;;27.40;51.10;;;;;;5046328;28;19924;-64
2022/07/26 00:55:33;;;;;;;;;;;27.40;51.10;;;;;;5065114;28;19920;-64
2022/07/26 00:58:00;;;;;;;;;;;27.40;51.00;;;;;;5050884;28;19925;-64
2022/07/26 01:00:26;;;;;;;;;;;27.40;51.00;;;;;;5042550;28;19917;-64
2022/07/26 01:02:52;;;;;;;;;;;27.40;50.90;;;;;;5051765;28;19917;-64
2022/07/26 01:05:17;;;;;;;;;;;27.40;51.00;;;;;;5046498;28;20264;-64
2022/07/26 01:07:43;;;;;;;;;;;27.40;51.20;;;;;;5047120;28;20391;-64
2022/07/26 01:10:11;;;;;;;;;;;27.30;51.20;;;;;;5049318;28;19955;-64
2022/07/26 01:12:39;;;;;;;;;;;27.30;51.30;;;;;;5051174;28;20007;-65
2022/07/26 01:15:05;;;;;;;;;;;27.30;51.30;;;;;;5047132;28;19913;-64
2022/07/26 01:17:30;;;;;;;;;;;27.40;51.30;;;;;;5052615;28;20283;-64
2022/07/26 01:19:56;;;;;;;;;;;27.40;51.30;;;;;;5048349;28;19913;-64
2022/07/26 01:22:21;;;;;;;;;;;27.40;51.30;;;;;;5050516;28;19920;-64
2022/07/26 01:24:47;;;;;;;;;;;27.40;51.30;;;;;;5048827;28;19940;-64
2022/07/26 01:27:12;;;;;;;;;;;27.40;51.30;;;;;;5046160;28;19919;-64
2022/07/26 01:29:38;;;;;;;;;;;27.40;51.30;;;;;;5048977;28;19920;-64
2022/07/26 01:32:04;;;;;;;;;;;27.30;51.40;;;;;;5050061;28;20373;-64
2022/07/26 01:34:29;;;;;;;;;;;27.20;51.60;;;;;;5048124;28;19913;-64
2022/07/26 01:36:55;;;;;;;;;;;27.10;51.80;;;;;;5043727;28;19917;-64
2022/07/26 01:39:21;;;;;;;;;;;27.10;51.70;;;;;;5044743;28;19917;-64
2022/07/26 01:41:46;;;;;;;;;;;27.10;51.60;;;;;;5041375;28;19928;-64
2022/07/26 01:44:12;;;;;;;;;;;27.20;51.50;;;;;;5046880;28;20333;-64
2022/07/26 01:46:37;;;;;;;;;;;27.20;51.50;;;;;;5053603;28;20034;-64
2022/07/26 01:49:03;;;;;;;;;;;27.20;51.50;;;;;;5041857;28;19924;-64
2022/07/26 01:51:28;;;;;;;;;;;27.30;51.50;;;;;;5063757;28;19936;-64
2022/07/26 01:53:54;;;;;;;;;;;27.30;51.50;;;;;;5050778;28;19917;-64
2022/07/26 01:56:19;;;;;;;;;;;27.30;51.40;;;;;;5050363;28;19928;-64
2022/07/26 01:58:44;;;;;;;;;;;27.30;51.40;;;;;;5045521;28;19912;-64
2022/07/26 02:01:10;;;;;;;;;;;27.30;51.50;;;;;;5042735;28;19913;-64
2022/07/26 02:03:35;;;;;;;;;;;27.20;51.40;;;;;;5050052;28;19913;-64
2022/07/26 02:06:01;;;;;;;;;;;27.20;51.60;;;;;;5051160;28;19981;-64
2022/07/26 02:08:26;;;;;;;;;;;27.10;51.70;;;;;;5047777;28;19936;-64
2022/07/26 02:11:01;;;;;;;;;;;27.10;51.60;;;;;;5048639;28;20008;-64
2022/07/26 02:13:30;;;;;;;;;;;27.10;51.50;;;;;;5047389;28;20359;-64
2022/07/26 02:15:57;;;;;;;;;;;27.20;51.60;;;;;;5045959;28;20007;-64
2022/07/26 02:18:24;;;;;;;;;;;27.10;51.60;;;;;;5044077;28;20008;-64
2022/07/26 02:20:49;;;;;;;;;;;27.20;51.70;;;;;;5050525;28;19917;-64
2022/07/26 02:23:14;;;;;;;;;;;27.10;51.80;;;;;;5023640;28;20343;-64
2022/07/26 02:25:40;;;;;;;;;;;27.10;51.70;;;;;;5046520;28;20288;-64
2022/07/26 02:28:05;;;;;;;;;;;27.10;51.80;;;;;;5030680;28;20009;-65
2022/07/26 02:30:31;;;;;;;;;;;27.10;51.80;;;;;;5050283;28;19967;-64
2022/07/26 02:32:56;;;;;;;;;;;27.10;51.90;;;;;;5046609;28;19913;-64
2022/07/26 02:35:22;;;;;;;;;;;27.10;52.00;;;;;;5050952;28;19916;-64
2022/07/26 02:37:47;;;;;;;;;;;27.10;51.90;;;;;;5064217;28;19944;-64
2022/07/26 02:40:12;;;;;;;;;;;27.10;51.70;;;;;;5043047;28;19921;-64
2022/07/26 02:42:38;;;;;;;;;;;27.10;51.70;;;;;;5060476;28;19917;-64
2022/07/26 02:45:03;;;;;;;;;;;27.10;51.80;;;;;;5046119;28;19920;-64
2022/07/26 02:47:30;;;;;;;;;;;27.10;51.70;;;;;;5046984;28;19917;-64
2022/07/26 02:49:56;;;;;;;;;;;27.10;51.80;;;;;;5045422;28;19916;-64
2022/07/26 02:52:21;;;;;;;;;;;27.10;51.80;;;;;;5049903;28;20020;-63
2022/07/26 02:54:46;;;;;;;;;;;27.10;51.80;;;;;;5033390;28;19916;-64
2022/07/26 02:57:13;;;;;;;;;;;27.10;51.90;;;;;;5048616;28;19913;-64
2022/07/26 02:59:38;;;;;;;;;;;27.00;52.00;;;;;;5053337;28;19962;-64
2022/07/26 03:02:04;;;;;;;;;;;27.10;51.80;;;;;;5055310;28;19989;-64
2022/07/26 03:04:29;;;;;;;;;;;27.10;52.50;;;;;;5047389;28;19987;-64
2022/07/26 03:06:55;;;;;;;;;;;27.10;51.90;;;;;;5052385;28;19912;-64
2022/07/26 03:09:20;;;;;;;;;;;27.10;51.90;;;;;;5052835;28;19913;-64
2022/07/26 03:11:46;;;;;;;;;;;27.00;51.90;;;;;;5051642;28;19921;-64
2022/07/26 03:14:11;;;;;;;;;;;27.00;52.00;;;;;;5052989;28;19924;-64
2022/07/26 03:16:36;;;;;;;;;;;27.00;52.10;;;;;;5050005;28;20327;-65
2022/07/26 03:19:02;;;;;;;;;;;27.00;52.20;;;;;;5052774;28;19928;-64
2022/07/26 03:21:27;;;;;;;;;;;27.00;52.30;;;;;;5047696;28;19913;-64
2022/07/26 03:23:53;;;;;;;;;;;27.00;52.30;;;;;;5046324;28;19916;-64
2022/07/26 03:26:19;;;;;;;;;;;27.00;52.40;;;;;;5049691;28;20415;-64
2022/07/26 03:28:44;;;;;;;;;;;27.00;52.40;;;;;;5053260;28;19971;-64
2022/07/26 03:31:10;;;;;;;;;;;27.00;52.40;;;;;;5052121;28;20370;-64
2022/07/26 03:33:35;;;;;;;;;;;26.90;52.50;;;;;;5049340;28;19940;-64
2022/07/26 03:36:01;;;;;;;;;;;26.80;52.60;;;;;;5044845;28;20392;-64
2022/07/26 03:38:27;;;;;;;;;;;26.70;52.70;;;;;;5047169;28;19935;-64
2022/07/26 03:40:52;;;;;;;;;;;26.70;52.80;;;;;;5034506;28;20048;-64
2022/07/26 03:43:20;;;;;;;;;;;26.70;53.00;;;;;;5054179;28;20586;-64
2022/07/26 03:45:46;;;;;;;;;;;26.70;52.90;;;;;;5050583;28;20365;-64
2022/07/26 03:48:14;;;;;;;;;;;26.70;52.90;;;;;;5049146;28;19939;-64
2022/07/26 03:50:39;;;;;;;;;;;26.80;53.00;;;;;;5051227;28;19963;-64
2022/07/26 03:53:04;;;;;;;;;;;26.80;52.80;;;;;;5045907;28;19952;-64
2022/07/26 03:58:15;;;;;;;;;;;26.90;52.70;;;;;;5047034;28;19923;-64
2022/07/26 04:00:41;;;;;;;;;;;26.90;52.70;;;;;;5050455;28;19956;-64
2022/07/26 04:03:06;;;;;;;;;;;26.80;52.90;;;;;;5054470;28;19963;-64
2022/07/26 04:05:32;;;;;;;;;;;26.80;53.00;;;;;;5050986;28;19917;-64
2022/07/26 04:07:57;;;;;;;;;;;26.80;53.10;;;;;;5046934;28;19921;-64
2022/07/26 04:10:22;;;;;;;;;;;26.70;53.10;;;;;;5051550;28;19948;-64
2022/07/26 04:12:48;;;;;;;;;;;26.70;53.20;;;;;;5048778;28;19928;-64
2022/07/26 04:15:15;;;;;;;;;;;26.70;53.20;;;;;;5040659;28;19924;-64
2022/07/26 04:17:57;;;;;;;;;;;26.70;53.30;;;;;;5016420;28;20211;-64
2022/07/26 04:20:22;;;;;;;;;;;26.60;53.50;;;;;;5050827;28;20385;-64
2022/07/26 04:22:47;;;;;;;;;;;26.70;53.40;;;;;;5048856;28;19909;-64
2022/07/26 04:25:13;;;;;;;;;;;26.70;53.40;;;;;;5046739;28;19920;-64
2022/07/26 04:27:38;;;;;;;;;;;26.70;53.40;;;;;;5052175;28;19913;-64
2022/07/26 04:30:04;;;;;;;;;;;26.70;53.20;;;;;;5051820;28;19999;-64
2022/07/26 04:32:30;;;;;;;;;;;26.70;54.10;;;;;;5048468;28;20106;-64
2022/07/26 04:34:55;;;;;;;;;;;26.60;53.60;;;;;;5048901;28;19914;-64
2022/07/26 04:37:21;;;;;;;;;;;26.60;53.80;;;;;;5050772;28;19924;-64
2022/07/26 04:39:46;;;;;;;;;;;26.50;53.90;;;;;;5052140;28;20054;-64
2022/07/26 04:42:12;;;;;;;;;;;26.40;54.10;;;;;;5060172;28;19921;-64
2022/07/26 04:44:37;;;;;;;;;;;26.40;54.30;;;;;;5047269;28;20364;-64
2022/07/26 04:47:03;;;;;;;;;;;26.40;54.20;;;;;;5051248;28;19928;-64
2022/07/26 04:49:28;;;;;;;;;;;26.50;54.30;;;;;;5053439;28;20341;-64
2022/07/26 04:51:54;;;;;;;;;;;26.40;54.20;;;;;;5051165;28;19924;-64
2022/07/26 04:54:21;;;;;;;;;;;26.50;54.10;;;;;;5052889;28;19920;-64
2022/07/26 04:56:47;;;;;;;;;;;26.50;54.20;;;;;;5046721;28;20327;-65
2022/07/26 04:59:12;;;;;;;;;;;26.50;54.00;;;;;;5044120;28;19921;-64
2022/07/26 05:01:38;;;;;;;;;;;26.50;54.00;;;;;;5050513;28;19947;-64
2022/07/26 05:04:03;;;;;;;;;;;26.50;54.10;;;;;;5044796;28;19947;-64
2022/07/26 05:06:31;;;;;;;;;;;26.40;54.10;;;;;;5046475;28;19916;-64
2022/07/26 05:08:56;;;;;;;;;;;26.50;54.10;;;;;;5048652;28;19944;-64
2022/07/26 05:11:22;;;;;;;;;;;26.50;54.10;;;;;;5050322;28;20351;-64
2022/07/26 05:13:47;;;;;;;;;;;26.50;54.10;;;;;;5046827;28;19943;-64
2022/07/26 05:16:13;;;;;;;;;;;26.50;54.10;;;;;;5052097;28;19941;-64
2022/07/26 05:18:38;;;;;;;;;;;26.50;54.10;;;;;;5049903;28;19924;-64
2022/07/26 05:21:03;;;;;;;;;;;26.50;54.00;;;;;;5050474;28;19917;-64
2022/07/26 05:23:29;;;;;;;;;;;26.50;54.00;;;;;;5049842;28;19916;-64
2022/07/26 05:25:55;;;;;;;;;;;26.50;54.00;;;;;;5045625;28;19917;-64
2022/07/26 05:28:20;;;;;;;;;;;26.50;54.10;;;;;;5046401;28;19920;-64
2022/07/26 05:30:46;;;;;;;;;;;26.40;54.30;;;;;;5046919;28;19919;-63
2022/07/26 05:33:11;;;;;;;;;;;26.40;54.50;;;;;;5049258;28;19920;-64
2022/07/26 05:35:37;;;;;;;;;;;26.40;54.60;;;;;;5050991;28;19920;-64
2022/07/26 05:38:02;;;;;;;;;;;26.40;54.40;;;;;;5046169;28;20316;-64
2022/07/26 05:40:28;;;;;;;;;;;26.40;54.30;;;;;;5041892;28;20273;-64
2022/07/26 05:42:53;;;;;;;;;;;26.50;54.40;;;;;;5044776;28;19920;-64
2022/07/26 05:45:18;;;;;;;;;;;26.50;54.30;;;;;;5043474;28;20365;-64
2022/07/26 05:47:44;;;;;;;;;;;26.50;54.30;;;;;;5043757;28;20348;-64
2022/07/26 05:50:09;;;;;;;;;;;26.50;54.30;;;;;;5047109;28;19913;-64
2022/07/26 05:52:35;;;;;;;;;;;26.40;54.20;;;;;;5048250;28;19948;-63
2022/07/26 05:55:00;;;;;;;;;;;26.40;54.30;;;;;;5044564;28;20331;-64
2022/07/26 05:57:26;;;;;;;;;;;26.40;54.20;;;;;;5038066;28;19952;-64
2022/07/26 05:59:51;;;;;;;;;;;26.30;54.30;;;;;;5050011;28;19959;-64
2022/07/26 06:02:17;;;;;;;;;;;26.40;54.30;;;;;;5043424;28;20394;-64
2022/07/26 06:04:42;;;;;;;;;;;26.50;54.10;;;;;;5044845;28;20525;-64
2022/07/26 06:07:08;;;;;;;;;;;26.40;54.10;;;;;;5048079;28;19958;-64
2022/07/26 06:09:33;;;;;;;;;;;26.40;54.10;;;;;;5049535;28;19916;-64
2022/07/26 06:11:59;;;;;;;;;;;26.50;54.10;;;;;;5047851;28;19947;-64
2022/07/26 06:14:24;;;;;;;;;;;26.50;54.10;;;;;;5045467;28;20405;-64
2022/07/26 06:16:50;;;;;;;;;;;26.40;54.20;;;;;;5042568;28;20006;-64
2022/07/26 06:19:15;;;;;;;;;;;26.40;54.60;;;;;;5050952;28;20087;-64
2022/07/26 06:21:46;;;;;;;;;;;26.50;54.10;;;;;;5051862;28;19960;-64
2022/07/26 06:24:12;;;;;;;;;;;26.60;53.90;;;;;;5046039;28;19909;-64
2022/07/26 06:26:37;;;;;;;;;;;26.60;53.90;;;;;;5049214;28;19917;-64
2022/07/26 06:29:03;;;;;;;;;;;26.60;53.80;;;;;;5051249;28;19909;-64
2022/07/26 06:31:28;;;;;;;;;;;26.60;53.80;;;;;;5050333;28;19917;-64
2022/07/26 06:33:54;;;;;;;;;;;26.60;53.90;;;;;;5042220;28;19917;-64
2022/07/26 06:36:19;;;;;;;;;;;26.60;53.90;;;;;;5047318;28;19912;-64
2022/07/26 06:38:45;;;;;;;;;;;26.60;53.90;;;;;;5044950;28;20388;-64
2022/07/26 06:41:10;;;;;;;;;;;26.60;53.90;;;;;;5046729;28;20384;-64
2022/07/26 06:43:35;;;;;;;;;;;26.60;54.20;;;;;;5050825;28;19913;-64
2022/07/26 06:46:01;;;;;;;;;;;26.50;54.40;;;;;;5050598;28;19917;-64
2022/07/26 06:48:26;;;;;;;;;;;26.50;54.50;;;;;;5049373;28;19984;-64
2022/07/26 06:50:52;;;;;;;;;;;26.50;54.50;;;;;;5043952;28;19971;-64
2022/07/26 06:53:17;;;;;;;;;;;26.50;54.50;;;;;;5033247;28;19909;-64
2022/07/26 06:55:43;;;;;;;;;;;26.50;54.60;;;;;;5047753;28;19912;-64
2022/07/26 06:58:08;;;;;;;;;;;26.40;54.70;;;;;;5051124;28;19908;-64
2022/07/26 07:00:34;;;;;;;;;;;26.40;54.80;;;;;;5051073;28;20012;-65
2022/07/26 07:02:59;;;;;;;;;;;26.30;54.80;;;;;;5051920;28;20107;-64
2022/07/26 07:05:25;;;;;;;;;;;26.40;54.80;;;;;;5041812;28;19917;-65
2022/07/26 07:07:50;;;;;;;;;;;26.30;54.90;;;;;;5040686;28;19917;-64
2022/07/26 07:10:15;;;;;;;;;;;26.30;54.80;;;;;;5051192;28;19916;-64
2022/07/26 07:12:43;;;;;;;;;;;26.30;54.80;;;;;;5050763;28;20381;-64
2022/07/26 07:15:09;;;;;;;;;;;26.30;54.80;;;;;;5051626;28;20610;-64
2022/07/26 07:17:35;;;;;;;;;;;26.20;54.90;;;;;;5051177;28;19967;-63
2022/07/26 07:20:02;;;;;;;;;;;26.10;55.00;;;;;;5051103;28;20757;-64
2022/07/26 07:22:27;;;;;;;;;;;26.00;55.10;;;;;;5043904;28;20310;-64
2022/07/26 07:24:53;;;;;;;;;;;26.10;55.10;;;;;;5048761;28;20023;-63
2022/07/26 07:27:18;;;;;;;;;;;26.00;55.20;;;;;;5045850;28;19917;-64
2022/07/26 07:29:44;;;;;;;;;;;26.00;55.30;;;;;;5045820;28;19924;-64
2022/07/26 07:32:09;;;;;;;;;;;26.00;55.70;;;;;;5045136;28;20012;-63
2022/07/26 07:34:35;;;;;;;;;;;26.10;54.90;;;;;;5042942;28;19925;-63
2022/07/26 07:37:01;;;;;;;;;;;26.10;55.00;;;;;;5049182;28;19921;-64
2022/07/26 07:39:26;;;;;;;;;;;26.10;54.90;;;;;;5041547;28;19975;-63
2022/07/26 07:41:52;;;;;;;;;;;26.10;54.60;;;;;;5045737;28;19916;-63
2022/07/26 07:44:17;;;;;;;;;;;26.10;54.60;;;;;;5051786;28;19912;-63
2022/07/26 07:46:42;;;;;;;;;;;26.10;54.50;;;;;;5049973;28;19963;-62
2022/07/26 07:49:09;;;;;;;;;;;26.20;54.40;;;;;;5044484;28;20051;-62
2022/07/26 07:51:34;;;;;;;;;;;26.10;54.10;;;;;;5051296;28;20315;-62
2022/07/26 07:54:00;;;;;;;;;;;26.00;54.40;;;;;;5046754;28;19981;-63
2022/07/26 07:56:25;;;;;;;;;;;26.00;54.30;;;;;;5047658;28;19921;-64
2022/07/26 07:58:51;;;;;;;;;;;25.90;54.30;;;;;;5048139;28;19917;-63
2022/07/26 08:01:16;;;;;;;;;;;26.00;54.10;;;;;;5049271;28;20055;-63
2022/07/26 08:03:41;;;;;;;;;;;26.20;53.80;;;;;;5046498;28;19987;-64
2022/07/26 08:06:07;;;;;;;;;;;26.20;53.60;;;;;;5051232;28;19924;-63
2022/07/26 08:08:33;;;;;;;;;;;26.20;53.60;;;;;;5051119;28;19924;-62
2022/07/26 08:10:58;;;;;;;;;;;26.20;53.30;;;;;;5047305;28;19920;-63
2022/07/26 08:13:24;;;;;;;;;;;26.30;53.30;;;;;;5050049;28;20339;-63
2022/07/26 08:15:52;;;;;;;;;;;26.30;53.20;;;;;;5049597;28;19917;-63
2022/07/26 08:18:18;;;;;;;;;;;26.20;53.30;;;;;;5049223;28;19913;-64
2022/07/26 08:20:43;;;;;;;;;;;26.20;53.30;;;;;;5053151;28;19917;-64
2022/07/26 08:23:09;;;;;;;;;;;26.20;53.10;;;;;;5051809;28;19991;-62
2022/07/26 08:25:34;;;;;;;;;;;26.20;52.80;;;;;;5050606;28;20007;-63
2022/07/26 08:28:00;;;;;;;;;;;26.20;52.90;;;;;;5051749;28;20149;-63
2022/07/26 08:30:25;;;;;;;;;;;26.20;52.90;;;;;;5051325;28;19916;-63
2022/07/26 08:32:51;;;;;;;;;;;26.20;52.90;;;;;;5049239;28;19917;-63
2022/07/26 08:35:16;;;;;;;;;;;26.20;52.90;;;;;;5048596;28;19913;-63
2022/07/26 08:37:42;;;;;;;;;;;26.20;52.90;;;;;;5052235;28;19921;-62
2022/07/26 08:40:07;;;;;;;;;;;26.20;52.70;;;;;;5051201;28;20383;-63
2022/07/26 08:42:33;;;;;;;;;;;26.20;52.80;;;;;;5050020;28;19936;-63
2022/07/26 08:44:58;;;;;;;;;;;26.20;52.50;;;;;;5050262;28;19964;-63
2022/07/26 08:47:23;;;;;;;;;;;26.20;52.50;;;;;;5047634;28;19917;-61
2022/07/26 08:49:49;;;;;;;;;;;26.10;52.70;;;;;;5052503;28;19917;-61
2022/07/26 08:52:15;;;;;;;;;;;26.20;52.70;;;;;;5050233;28;19917;-63
2022/07/26 08:54:44;;;;;;;;;;;26.10;52.50;;;;;;5052369;28;19936;-62
2022/07/26 08:57:09;;;;;;;;;;;26.10;52.50;;;;;;5050024;28;19924;-63
2022/07/26 08:59:34;;;;;;;;;;;26.10;52.60;;;;;;5050486;28;19921;-63
2022/07/26 09:02:01;;;;;;;;;;;26.00;52.80;;;;;;5050399;28;19921;-63
2022/07/26 09:04:31;;;;;;;;;;;26.00;52.50;;;;;;5046782;28;19981;-63
2022/07/26 09:07:11;;;;;;;;;;;26.10;52.30;;;;;;5049704;28;19932;-63
2022/07/26 09:09:38;;;;;;;;;;;26.10;52.50;;;;;;5046597;28;19959;-61
2022/07/26 09:12:16;;;;;;;;;;;26.10;52.40;;;;;;5051195;28;19921;-63
2022/07/26 09:14:41;;;;;;;;;;;26.00;52.40;;;;;;5052757;28;20003;-62
2022/07/26 09:17:07;;;;;;;;;;;26.10;52.30;;;;;;5050546;28;20408;-63
2022/07/26 09:19:33;;;;;;;;;;;26.10;52.00;;;;;;5050638;28;20008;-63
2022/07/26 09:22:09;;;;;;;;;;;26.10;51.80;;;;;;5052257;28;19919;-63
2022/07/26 09:24:34;;;;;;;;;;;26.00;51.60;;;;;;5051330;28;19916;-63
2022/07/26 09:27:00;;;;;;;;;;;26.00;51.50;;;;;;5052575;28;19915;-63
2022/07/26 09:29:27;;;;;;;;;;;26.00;51.30;;;;;;5055224;28;20218;-63
2022/07/26 09:31:52;;;;;;;;;;;25.90;51.20;;;;;;5048919;28;19920;-63
2022/07/26 09:34:24;;;;;;;;;;;26.00;51.10;;;;;;5051090;28;19908;-62
2022/07/26 09:36:50;;;;;;;;;;;26.00;51.00;;;;;;5027532;28;19917;-63
2022/07/26 09:39:15;;;;;;;;;;;26.00;51.00;;;;;;5039341;28;19920;-63
2022/07/26 09:41:41;;;;;;;;;;;26.00;50.80;;;;;;5046192;28;20011;-62
2022/07/26 09:44:18;;;;;;;;;;;26.10;50.60;;;;;;5047984;28;19917;-63
2022/07/26 09:46:50;;;;;;;;;;;26.00;50.60;;;;;;5045347;28;19924;-63
2022/07/26 09:49:16;;;;;;;;;;;26.00;50.50;;;;;;5047773;28;19916;-63
2022/07/26 09:51:43;;;;;;;;;;;25.80;50.50;;;;;;5045372;28;19923;-64
2022/07/26 09:54:09;;;;;;;;;;;25.90;51.20;;;;;;5047977;28;19931;-63
2022/07/26 09:56:45;;;;;;;;;;;25.80;50.40;;;;;;5062567;28;19917;-63
2022/07/26 09:59:11;;;;;;;;;;;25.80;50.30;;;;;;5051125;28;19916;-62
2022/07/26 10:01:36;;;;;;;;;;;25.90;49.90;;;;;;5048268;28;19916;-63
2022/07/26 10:04:02;;;;;;;;;;;26.00;49.50;;;;;;5048538;28;19971;-63
2022/07/26 10:06:27;;;;;;;;;;;26.10;49.30;;;;;;5046921;28;19925;-62
2022/07/26 10:08:53;;;;;;;;;;;25.90;49.10;;;;;;5047435;28;19924;-62
2022/07/26 10:11:18;;;;;;;;;;;25.90;49.10;;;;;;5045736;28;19925;-63
2022/07/26 10:13:44;;;;;;;;;;;25.90;49.00;;;;;;5050286;28;19943;-64
2022/07/26 10:16:33;;;;;;;;;;;25.90;48.90;;;;;;5044610;28;19916;-64
2022/07/26 10:18:58;;;;;;;;;;;25.90;49.10;;;;;;5039203;28;19912;-63
2022/07/26 10:21:28;;;;;;;;;;;25.90;49.20;;;;;;5050177;28;19924;-63
2022/07/26 10:23:57;;;;;;;;;;;25.90;49.10;;;;;;5046192;28;20381;-64
2022/07/26 10:26:32;;;;;;;;;;;26.00;48.90;;;;;;5048394;28;19920;-64
2022/07/26 10:29:16;;;;;;;;;;;26.10;48.70;;;;;;5042024;28;20291;-62
2022/07/26 10:32:01;;;;;;;;;;;26.10;48.80;;;;;;5045544;28;19992;-63
2022/07/26 10:34:30;;;;;;;;;;;26.20;48.30;;;;;;5040613;28;19921;-62
2022/07/26 10:36:56;;;;;;;;;;;26.10;48.10;;;;;;5046827;28;19952;-63
2022/07/26 10:39:22;;;;;;;;;;;26.10;47.90;;;;;;5051093;28;20264;-63
2022/07/26 10:41:55;;;;;;;;;;;26.00;47.60;;;;;;5046057;28;19920;-63
2022/07/26 10:44:25;;;;;;;;;;;26.20;47.60;;;;;;5046168;28;19928;-63
2022/07/26 10:47:06;;;;;;;;;;;26.20;47.00;;;;;;5051068;28;20073;-64
2022/07/26 10:49:35;;;;;;;;;;;26.20;47.00;;;;;;5051398;28;19916;-63
2022/07/26 10:52:04;;;;;;;;;;;26.20;46.30;;;;;;5032831;28;19936;-63
2022/07/26 10:54:29;;;;;;;;;;;26.30;45.90;;;;;;5045645;28;20574;-63
2022/07/26 10:56:55;;;;;;;;;;;26.20;46.20;;;;;;5047255;28;20001;-63
2022/07/26 10:59:32;;;;;;;;;;;26.30;45.80;;;;;;5050892;28;19920;-63
2022/07/26 11:01:58;;;;;;;;;;;26.20;45.40;;;;;;5041417;28;20388;-63
2022/07/26 11:04:24;;;;;;;;;;;26.20;45.50;;;;;;5043161;28;19963;-63
2022/07/26 11:06:50;;;;;;;;;;;26.20;45.40;;;;;;5042961;28;19960;-63
2022/07/26 11:09:17;;;;;;;;;;;26.20;45.20;;;;;;5048539;28;19975;-64
2022/07/26 11:11:44;;;;;;;;;;;26.20;45.10;;;;;;5044735;28;20004;-63
2022/07/26 11:14:10;;;;;;;;;;;26.20;45.20;;;;;;5048521;28;19917;-62
2022/07/26 11:16:36;;;;;;;;;;;26.10;45.10;;;;;;5047130;28;19919;-62
2022/07/26 11:19:10;;;;;;;;;;;26.10;45.30;;;;;;5051036;28;20259;-63
2022/07/26 11:21:36;;;;;;;;;;;26.00;45.20;;;;;;5053987;28;19912;-62
2022/07/26 11:24:02;;;;;;;;;;;26.00;45.30;;;;;;5049885;28;19917;-62
2022/07/26 11:26:30;;;;;;;;;;;26.00;45.30;;;;;;5049297;28;19917;-62
2022/07/26 11:28:57;;;;;;;;;;;25.90;45.20;;;;;;5053990;28;20011;-62
2022/07/26 11:31:24;;;;;;;;;;;25.80;45.10;;;;;;5052177;28;19934;-63
2022/07/26 11:33:50;;;;;;;;;;;25.90;45.10;;;;;;5056480;28;19912;-62
2022/07/26 11:36:17;;;;;;;;;;;25.90;44.80;;;;;;5051540;28;19913;-63
2022/07/26 11:38:43;;;;;;;;;;;25.90;44.60;;;;;;5050934;28;20031;-61
2022/07/26 11:41:08;;;;;;;;;;;25.90;44.80;;;;;;5049887;28;20382;-64
2022/07/26 11:43:37;;;;;;;;;;;26.00;44.60;;;;;;5050875;28;20003;-64
2022/07/26 11:46:02;;;;;;;;;;;26.00;44.50;;;;;;5052757;28;19924;-62
2022/07/26 11:48:28;;;;;;;;;;;26.10;44.20;;;;;;5052693;28;20820;-63
2022/07/26 11:51:09;;;;;;;;;;;26.10;44.10;;;;;;5050089;28;20404;-62
2022/07/26 11:53:38;;;;;;;;;;;26.10;44.20;;;;;;5052198;28;19924;-63
2022/07/26 11:56:31;;;;;;;;;;;26.00;43.80;;;;;;5050081;28;19936;-63
2022/07/26 11:58:56;;;;;;;;;;;25.90;43.90;;;;;;5052334;28;20433;-63
2022/07/26 12:01:22;;;;;;;;;;;25.90;43.80;;;;;;5052103;28;20027;-63
2022/07/26 12:03:51;;;;;;;;;;;25.90;43.80;;;;;;5050737;28;19916;-64
2022/07/26 12:06:20;;;;;;;;;;;25.90;43.70;;;;;;5050694;28;19931;-61
2022/07/26 12:08:46;;;;;;;;;;;25.80;43.60;;;;;;5051450;28;19913;-62
2022/07/26 12:11:12;;;;;;;;;;;25.90;43.40;;;;;;5051326;28;19982;-61
2022/07/26 12:13:46;;;;;;;;;;;26.00;43.40;;;;;;5051205;28;19921;-62
2022/07/26 12:16:12;;;;;;;;;;;26.10;43.00;;;;;;5048447;28;19928;-62
2022/07/26 12:18:38;;;;;;;;;;;26.10;42.80;;;;;;5040677;28;19913;-63
2022/07/26 12:21:07;;;;;;;;;;;26.10;43.00;;;;;;5056676;28;20458;-63
2022/07/26 12:23:42;;;;;;;;;;;26.10;42.20;;;;;;5051026;28;19998;-63
2022/07/26 12:26:18;;;;;;;;;;;26.20;42.00;;;;;;5053360;28;20417;-63
2022/07/26 12:28:43;;;;;;;;;;;26.20;42.30;;;;;;5046599;28;19916;-62
2022/07/26 12:31:22;;;;;;;;;;;26.20;41.70;;;;;;5050285;28;20054;-62
2022/07/26 12:33:48;;;;;;;;;;;26.10;41.60;;;;;;5053560;28;20335;-63
2022/07/26 12:36:20;;;;;;;;;;;26.10;41.10;;;;;;5034830;28;19916;-64
2022/07/26 12:38:45;;;;;;;;;;;26.10;42.30;;;;;;5048172;28;19920;-63
2022/07/26 12:41:10;;;;;;;;;;;26.10;42.40;;;;;;5049579;28;19920;-64
2022/07/26 12:43:39;;;;;;;;;;;26.10;42.00;;;;;;5047721;28;19912;-63
2022/07/26 12:46:05;;;;;;;;;;;26.10;41.30;;;;;;5045701;28;19924;-63
2022/07/26 12:48:30;;;;;;;;;;;26.20;41.00;;;;;;5048322;28;20341;-63
2022/07/26 12:50:56;;;;;;;;;;;26.30;40.40;;;;;;5050928;28;19923;-63
2022/07/26 12:53:21;;;;;;;;;;;26.30;40.20;;;;;;5050698;28;19935;-63
2022/07/26 12:55:47;;;;;;;;;;;26.30;40.00;;;;;;5049814;28;19912;-63
2022/07/26 12:58:12;;;;;;;;;;;26.20;40.50;;;;;;5049783;28;19913;-63
2022/07/26 13:00:38;;;;;;;;;;;26.30;40.00;;;;;;5049550;28;20401;-61
2022/07/26 13:03:03;;;;;;;;;;;26.30;39.60;;;;;;5047778;28;20410;-63
2022/07/26 13:05:30;;;;;;;;;;;26.30;39.80;;;;;;5044624;28;19925;-62
2022/07/26 13:07:55;;;;;;;;;;;26.30;39.80;;;;;;5047889;28;19912;-63
2022/07/26 13:10:21;;;;;;;;;;;26.30;40.00;;;;;;5033628;28;19921;-62
2022/07/26 13:12:46;;;;;;;;;;;26.30;39.80;;;;;;5050614;28;19921;-62
2022/07/26 13:15:12;;;;;;;;;;;26.30;39.70;;;;;;5052198;28;19920;-63
2022/07/26 13:17:37;;;;;;;;;;;26.20;39.70;;;;;;5052640;28;19913;-64
2022/07/26 13:20:03;;;;;;;;;;;26.20;39.90;;;;;;5049988;28;19912;-62
2022/07/26 13:22:29;;;;;;;;;;;26.30;40.00;;;;;;5046849;28;19923;-63
2022/07/26 13:24:54;;;;;;;;;;;26.30;39.90;;;;;;5050199;28;19916;-63
2022/07/26 13:27:19;;;;;;;;;;;26.30;39.60;;;;;;5045421;28;19952;-61
2022/07/26 13:29:45;;;;;;;;;;;26.30;39.90;;;;;;5048517;28;19913;-62
2022/07/26 13:32:10;;;;;;;;;;;26.40;39.50;;;;;;5049513;28;20299;-63
2022/07/26 13:34:36;;;;;;;;;;;26.40;39.50;;;;;;5046938;28;20036;-63
2022/07/26 13:37:01;;;;;;;;;;;26.40;39.30;;;;;;5047619;28;19952;-62
2022/07/26 13:39:27;;;;;;;;;;;26.40;39.40;;;;;;5052912;28;19963;-63
2022/07/26 13:41:53;;;;;;;;;;;26.40;39.50;;;;;;5048907;28;20360;-62
2022/07/26 13:44:18;;;;;;;;;;;26.40;39.50;;;;;;5043767;28;19955;-62
2022/07/26 13:46:43;;;;;;;;;;;26.40;39.80;;;;;;5046687;28;19920;-62
2022/07/26 13:49:09;;;;;;;;;;;26.40;39.60;;;;;;5047803;28;19917;-63
2022/07/26 13:54:20;;;;;;;;;;;26.40;39.50;;;;;;5053276;28;19974;-63
2022/07/26 13:56:45;;;;;;;;;;;26.40;39.30;;;;;;5047660;28;20007;-63
2022/07/26 13:59:11;;;;;;;;;;;26.40;39.80;;;;;;5048719;28;20642;-62
2022/07/26 14:01:36;;;;;;;;;;;26.50;39.40;;;;;;5054933;28;19913;-63
2022/07/26 14:04:02;;;;;;;;;;;26.60;39.00;;;;;;5029772;28;19925;-62
2022/07/26 14:06:28;;;;;;;;;;;26.50;38.60;;;;;;5023614;28;19917;-63
2022/07/26 14:08:53;;;;;;;;;;;26.50;38.90;;;;;;5060611;28;19924;-62
2022/07/26 14:11:19;;;;;;;;;;;26.40;38.50;;;;;;5051152;28;19942;-62
2022/07/26 14:13:44;;;;;;;;;;;26.30;39.30;;;;;;5051070;28;20014;-62
2022/07/26 14:16:09;;;;;;;;;;;26.40;39.10;;;;;;5046262;28;19992;-62
2022/07/26 14:18:35;;;;;;;;;;;26.40;38.90;;;;;;5046572;28;19912;-63